Time;durP1;ratioP1;P1;durP2;ratioP2;P2;SDS_P1;SDS_P2;PMS_P1;PMS_P2;Temp;Humidity;BMP_temperature;BMP_pressure;BME280_temperature;BME280_humidity;BME280_pressure;Samples;Min_cycle;Max_cycle;Signal;HPM_P1;HPM_P2
2021/10/28 00:14:32;;;;;;;11.20;3.60;;;26.30;98.10;;;;;;5094934;28;20629;-74
2021/10/28 00:17:01;;;;;;;16.30;3.50;;;26.30;98.50;;;;;;5094730;28;20205;-73
2021/10/28 00:19:28;;;;;;;8.37;3.30;;;26.50;98.50;;;;;;5094601;28;20212;-73
2021/10/28 00:21:56;;;;;;;14.03;3.90;;;26.70;98.00;;;;;;5094761;28;20175;-73
2021/10/28 00:24:24;;;;;;;11.13;3.10;;;26.70;98.10;;;;;;5094272;28;20182;-74
2021/10/28 00:26:51;;;;;;;11.40;3.20;;;27.10;96.70;;;;;;5089785;28;20174;-74
2021/10/28 00:29:21;;;;;;;8.63;2.97;;;27.00;96.30;;;;;;5094765;28;20592;-73
2021/10/28 00:31:49;;;;;;;9.80;3.23;;;27.10;96.60;;;;;;5092990;28;20679;-73
2021/10/28 00:34:18;;;;;;;6.80;2.90;;;27.30;96.80;;;;;;5094814;28;20182;-73
2021/10/28 00:36:48;;;;;;;10.73;2.93;;;27.80;95.50;;;;;;5074774;28;20198;-72
2021/10/28 00:39:16;;;;;;;10.67;2.63;;;28.30;94.80;;;;;;5081836;28;20205;-72
2021/10/28 00:41:44;;;;;;;9.43;3.03;;;28.30;93.80;;;;;;5092782;28;20177;-72
2021/10/28 00:44:12;;;;;;;8.70;2.90;;;28.60;92.00;;;;;;5094057;28;20183;-73
2021/10/28 00:46:40;;;;;;;10.30;3.00;;;28.10;92.20;;;;;;5084144;28;20354;-73
2021/10/28 00:49:10;;;;;;;7.50;3.07;;;28.00;92.20;;;;;;5084215;28;20190;-73
2021/10/28 00:51:39;;;;;;;19.97;4.73;;;27.80;92.20;;;;;;5094474;28;20182;-74
2021/10/28 00:54:07;;;;;;;25.50;3.20;;;27.80;92.20;;;;;;5094445;28;20178;-72
2021/10/28 00:56:35;;;;;;;4.53;2.30;;;27.90;91.50;;;;;;5074441;28;20167;-73
2021/10/28 00:59:03;;;;;;;10.50;3.10;;;27.70;91.40;;;;;;5074156;28;20286;-77
2021/10/28 01:01:30;;;;;;;9.90;3.07;;;27.80;91.40;;;;;;5088737;28;20262;-76
2021/10/28 01:03:58;;;;;;;8.80;1.97;;;28.00;90.80;;;;;;5094096;28;20228;-73
2021/10/28 01:06:25;;;;;;;7.27;2.23;;;28.40;88.90;;;;;;5083154;28;20188;-75
2021/10/28 01:08:53;;;;;;;7.53;2.70;;;28.40;86.60;;;;;;5087377;28;20610;-73
2021/10/28 01:11:20;;;;;;;9.33;2.50;;;28.60;86.60;;;;;;5094728;28;20167;-72
2021/10/28 01:13:48;;;;;;;6.20;2.20;;;28.90;84.60;;;;;;5093533;28;20237;-74
2021/10/28 01:16:16;;;;;;;8.10;3.00;;;29.50;83.80;;;;;;5094096;28;20174;-74
2021/10/28 01:18:44;;;;;;;8.67;2.57;;;29.80;81.30;;;;;;5094639;28;20213;-75
2021/10/28 01:21:11;;;;;;;4.80;1.60;;;30.00;79.00;;;;;;5093649;28;20552;-73
2021/10/28 01:23:43;;;;;;;7.20;1.60;;;29.80;76.20;;;;;;5090695;28;20262;-73
2021/10/28 01:26:13;;;;;;;4.47;1.40;;;29.40;74.00;;;;;;5091535;28;20180;-74
2021/10/28 01:29:02;;;;;;;6.17;1.60;;;29.50;71.10;;;;;;5083508;28;20187;-77
2021/10/28 01:31:32;;;;;;;5.87;2.07;;;29.60;71.70;;;;;;5093151;28;20179;-74
2021/10/28 01:34:01;;;;;;;3.67;1.37;;;29.80;71.50;;;;;;5092663;28;20238;-74
2021/10/28 01:36:29;;;;;;;4.80;1.27;;;29.80;67.80;;;;;;5090100;28;20235;-72
2021/10/28 01:38:57;;;;;;;6.63;1.27;;;29.70;63.80;;;;;;5092958;28;20218;-74
2021/10/28 01:41:28;;;;;;;3.73;1.33;;;29.70;64.10;;;;;;5092988;28;20187;-75
2021/10/28 01:43:57;;;;;;;8.13;1.70;;;29.80;66.90;;;;;;5089899;28;20176;-73
2021/10/28 01:46:24;;;;;;;7.23;1.50;;;30.10;67.20;;;;;;5092655;28;20194;-74
2021/10/28 01:48:51;;;;;;;4.77;1.30;;;30.20;65.70;;;;;;5086660;28;20179;-74
2021/10/28 01:51:24;;;;;;;3.20;1.23;;;30.40;64.50;;;;;;5091262;28;20639;-73
2021/10/28 01:53:51;;;;;;;5.47;1.50;;;30.60;64.50;;;;;;5090971;28;20231;-76
2021/10/28 01:56:19;;;;;;;6.17;1.70;;;30.90;62.60;;;;;;5091144;28;20179;-72
2021/10/28 01:58:50;;;;;;;7.95;1.52;;;30.90;61.60;;;;;;5089409;28;20586;-75
2021/10/28 02:01:18;;;;;;;9.07;1.30;;;31.00;61.50;;;;;;5090567;28;20217;-74
2021/10/28 02:03:45;;;;;;;11.60;2.07;;;31.20;62.00;;;;;;5086708;28;20182;-74
2021/10/28 02:06:12;;;;;;;4.00;1.40;;;31.30;61.30;;;;;;5083614;28;20181;-75
2021/10/28 02:08:40;;;;;;;6.35;1.40;;;31.30;59.60;;;;;;5091825;28;20238;-74
2021/10/28 02:11:07;;;;;;;3.45;1.75;;;31.40;59.10;;;;;;5090167;28;20175;-74
2021/10/28 02:13:45;;;;;;;10.95;1.55;;;31.30;58.90;;;;;;5089135;27;20561;-74
2021/10/28 02:16:13;;;;;;;3.85;1.45;;;31.60;60.20;;;;;;5090366;28;20186;-74
2021/10/28 02:18:40;;;;;;;4.00;1.20;;;31.70;59.50;;;;;;5090600;28;20193;-74
2021/10/28 02:21:07;;;;;;;4.63;1.50;;;32.30;58.80;;;;;;5088245;28;20182;-73
2021/10/28 02:23:35;;;;;;;3.03;1.35;;;32.50;57.90;;;;;;5088403;28;20193;-75
2021/10/28 02:26:02;;;;;;;5.43;1.35;;;32.50;58.60;;;;;;5088269;28;20178;-74
2021/10/28 02:28:30;;;;;;;6.15;1.58;;;32.00;56.70;;;;;;5088255;28;20182;-73
2021/10/28 02:31:00;;;;;;;6.13;1.45;;;32.10;58.70;;;;;;5093195;28;20178;-75
2021/10/28 02:33:27;;;;;;;5.40;1.65;;;32.40;58.00;;;;;;5085906;28;20230;-74
2021/10/28 02:35:55;;;;;;;4.97;2.00;;;32.30;58.70;;;;;;5086163;28;20529;-73
2021/10/28 02:38:22;;;;;;;9.57;2.00;;;31.70;63.80;;;;;;5087898;28;20179;-75
2021/10/28 02:40:49;;;;;;;6.65;2.35;;;31.70;65.50;;;;;;5090995;28;20182;-74
2021/10/28 02:43:17;;;;;;;9.32;3.15;;;31.90;64.70;;;;;;5087521;28;20386;-74
2021/10/28 02:45:44;;;;;;;12.82;3.00;;;32.20;69.50;;;;;;5086657;28;20183;-74
2021/10/28 02:48:12;;;;;;;12.27;3.67;;;31.80;73.80;;;;;;5090332;28;20174;-80
2021/10/28 02:50:40;;;;;;;7.68;3.67;;;31.80;74.40;;;;;;5076882;28;20240;-74
2021/10/28 02:53:07;;;;;;;9.80;3.80;;;31.60;75.10;;;;;;5086620;28;20214;-77
2021/10/28 02:55:34;;;;;;;6.03;3.22;;;31.40;76.60;;;;;;5091233;28;20191;-74
2021/10/28 02:58:02;;;;;;;8.93;3.20;;;31.30;77.40;;;;;;5087878;28;20241;-79
2021/10/28 03:00:29;;;;;;;11.45;3.85;;;31.30;77.30;;;;;;5083677;28;20187;-74
2021/10/28 03:02:56;;;;;;;12.63;3.20;;;30.90;79.30;;;;;;5089410;28;20277;-75
2021/10/28 03:05:24;;;;;;;14.15;3.50;;;31.00;78.60;;;;;;5088113;28;20171;-75
2021/10/28 03:07:53;;;;;;;15.82;4.28;;;31.30;78.60;;;;;;5087455;28;20178;-74
2021/10/28 03:10:21;;;;;;;7.88;3.28;;;31.40;78.80;;;;;;5087310;28;20189;-76
2021/10/28 03:12:51;;;;;;;9.15;3.70;;;31.20;79.40;;;;;;5090822;28;20829;-75
2021/10/28 03:15:19;;;;;;;11.52;4.15;;;31.10;78.80;;;;;;5088138;28;20179;-74
2021/10/28 03:18:16;;;;;;;8.68;4.53;;;30.80;79.00;;;;;;5084870;28;20217;-80
2021/10/28 03:26:16;;;;;;;7.47;3.90;;;31.40;76.60;;;;;;5054728;28;20244;-71
2021/10/28 03:28:44;;;;;;;11.95;4.72;;;31.40;76.00;;;;;;5065293;28;20183;-81
2021/10/28 03:31:11;;;;;;;9.10;4.00;;;31.70;75.60;;;;;;5074922;28;20236;-73
2021/10/28 03:33:39;;;;;;;7.22;4.20;;;31.50;76.00;;;;;;5074479;28;20376;-74
2021/10/28 03:36:12;;;;;;;10.05;3.85;;;31.40;76.40;;;;;;5073423;28;20183;-74
2021/10/28 03:46:56;;;;;;;7.13;3.92;;;31.50;75.80;;;;;;5065975;28;20210;-74
2021/10/28 04:17:43;;;;;;;6.43;2.30;;;31.70;72.10;;;;;;5016724;28;20217;-73
2021/10/28 04:19:46;;;;;;;7.82;2.50;;;31.70;72.30;;;;;;5056413;28;20188;-74
2021/10/28 04:30:25;;;;;;;5.35;2.50;;;30.40;72.20;;;;;;5073396;28;20179;-72
2021/10/28 04:32:54;;;;;;;9.13;2.30;;;30.10;73.30;;;;;;5072788;28;20221;-72
2021/10/28 04:35:22;;;;;;;7.83;2.80;;;29.90;74.00;;;;;;5071810;28;20183;-73
2021/10/28 04:37:49;;;;;;;8.63;2.40;;;30.30;73.60;;;;;;5072193;28;20298;-73
2021/10/28 04:40:17;;;;;;;4.55;1.98;;;30.30;73.80;;;;;;5072530;28;20176;-73
2021/10/28 04:42:44;;;;;;;5.33;2.10;;;30.30;73.80;;;;;;5065814;28;20190;-74
2021/10/28 04:45:12;;;;;;;7.23;2.10;;;30.10;73.90;;;;;;5071394;28;20183;-73
2021/10/28 04:47:39;;;;;;;5.47;2.30;;;30.30;73.50;;;;;;5070705;28;20672;-73
2021/10/28 04:50:07;;;;;;;4.37;2.50;;;30.10;73.90;;;;;;5077638;28;20587;-76
2021/10/28 04:52:35;;;;;;;4.90;1.83;;;29.90;74.10;;;;;;5074249;28;20211;-72
2021/10/28 04:55:03;;;;;;;6.50;2.10;;;29.60;74.20;;;;;;5072189;28;20532;-73
2021/10/28 04:57:30;;;;;;;5.80;2.00;;;29.60;74.40;;;;;;5073713;28;20187;-72
2021/10/28 04:59:58;;;;;;;5.17;2.20;;;29.50;74.00;;;;;;5071831;28;20217;-73
2021/10/28 05:02:25;;;;;;;5.50;1.67;;;29.50;74.00;;;;;;5071100;28;20187;-73
2021/10/28 05:04:52;;;;;;;5.30;2.03;;;29.50;74.00;;;;;;5072618;28;20174;-74
2021/10/28 05:07:20;;;;;;;8.57;2.00;;;29.30;73.50;;;;;;5071723;28;20190;-74
2021/10/28 05:09:47;;;;;;;10.13;2.10;;;29.20;74.00;;;;;;5069602;28;20637;-74
2021/10/28 05:12:14;;;;;;;8.37;2.70;;;29.40;73.60;;;;;;5058464;28;20223;-74
2021/10/28 05:14:42;;;;;;;4.70;2.13;;;29.50;73.80;;;;;;5072103;28;20179;-72
2021/10/28 05:17:09;;;;;;;8.60;2.43;;;29.10;74.20;;;;;;5071877;28;20179;-72
2021/10/28 05:19:39;;;;;;;6.03;2.20;;;29.00;74.00;;;;;;5072785;28;20722;-74
2021/10/28 05:22:08;;;;;;;9.80;2.80;;;29.00;77.20;;;;;;5072510;28;20171;-73
2021/10/28 05:24:36;;;;;;;9.27;2.77;;;28.80;80.90;;;;;;5069861;28;20186;-73
2021/10/28 05:27:04;;;;;;;7.17;2.27;;;28.60;82.10;;;;;;5072798;28;20171;-73
2021/10/28 05:29:31;;;;;;;6.10;3.10;;;28.60;81.50;;;;;;5072188;28;20237;-74
2021/10/28 05:31:59;;;;;;;6.70;2.50;;;28.70;81.50;;;;;;5073044;28;20669;-75
2021/10/28 05:34:26;;;;;;;7.83;2.33;;;28.80;80.50;;;;;;5073624;28;20179;-74
2021/10/28 05:36:54;;;;;;;9.50;3.43;;;29.10;80.50;;;;;;5073446;28;20263;-74
2021/10/28 05:39:21;;;;;;;7.40;2.80;;;29.40;77.20;;;;;;5070546;28;20265;-74
2021/10/28 05:41:49;;;;;;;4.17;2.10;;;29.50;75.40;;;;;;5071970;28;20210;-76
2021/10/28 05:44:16;;;;;;;5.63;2.70;;;29.40;75.70;;;;;;5071104;28;20194;-76
2021/10/28 05:46:44;;;;;;;9.93;3.00;;;29.40;75.60;;;;;;5072352;28;20262;-73
2021/10/28 05:49:12;;;;;;;8.03;2.40;;;29.30;75.70;;;;;;5071531;28;20553;-76
2021/10/28 05:51:40;;;;;;;9.23;2.47;;;29.60;75.80;;;;;;5068257;28;20237;-76
2021/10/28 05:54:07;;;;;;;5.10;2.70;;;30.00;75.60;;;;;;5072214;28;20221;-78
2021/10/28 05:56:35;;;;;;;6.00;2.20;;;31.20;73.40;;;;;;5066494;28;20179;-76
2021/10/28 05:59:02;;;;;;;7.47;2.33;;;31.40;71.70;;;;;;5067723;28;20218;-76
2021/10/28 06:01:29;;;;;;;5.68;2.03;;;31.00;71.50;;;;;;5067415;28;20608;-75
2021/10/28 06:03:56;;;;;;;7.57;2.30;;;31.20;70.70;;;;;;5071495;28;20235;-79
2021/10/28 06:06:24;;;;;;;5.68;1.98;;;30.80;70.70;;;;;;5071357;28;20198;-75
2021/10/28 06:08:51;;;;;;;7.18;2.20;;;30.20;72.00;;;;;;5071358;28;20307;-77
2021/10/28 06:11:20;;;;;;;7.15;2.17;;;30.30;71.70;;;;;;5068769;28;20194;-74
2021/10/28 06:13:48;;;;;;;5.10;2.13;;;30.60;71.10;;;;;;5071210;28;20202;-75
2021/10/28 06:16:16;;;;;;;5.72;1.80;;;30.00;71.00;;;;;;5068752;28;20186;-73
2021/10/28 06:18:45;;;;;;;6.97;1.90;;;29.50;70.90;;;;;;5072765;28;20660;-74
2021/10/28 06:21:13;;;;;;;7.77;2.37;;;29.50;73.00;;;;;;5071153;28;20240;-74
2021/10/28 06:23:41;;;;;;;4.37;2.30;;;29.50;74.20;;;;;;5074209;28;20183;-72
2021/10/28 06:26:09;;;;;;;7.07;2.50;;;29.60;75.40;;;;;;5070284;28;20175;-74
2021/10/28 06:28:37;;;;;;;8.40;2.50;;;29.50;76.70;;;;;;5065859;28;20195;-73
2021/10/28 06:31:04;;;;;;;6.80;2.87;;;29.60;77.00;;;;;;5071670;28;20190;-76
2021/10/28 06:33:35;;;;;;;7.00;2.73;;;29.50;76.90;;;;;;5071850;28;20223;-74
2021/10/28 06:36:04;;;;;;;11.80;3.07;;;29.20;77.10;;;;;;5070869;28;20237;-75
2021/10/28 06:38:34;;;;;;;11.87;2.83;;;28.90;77.50;;;;;;5069800;28;20262;-74
2021/10/28 06:41:02;;;;;;;8.40;2.70;;;28.80;78.50;;;;;;5071587;28;20211;-75
2021/10/28 06:43:31;;;;;;;10.73;2.80;;;28.70;78.50;;;;;;5070384;28;20254;-76
2021/10/28 06:45:59;;;;;;;4.77;2.50;;;28.40;78.10;;;;;;5066143;28;20187;-74
2021/10/28 06:48:27;;;;;;;8.97;2.57;;;28.30;78.30;;;;;;5071448;28;20175;-74
2021/10/28 06:50:57;;;;;;;8.60;2.10;;;28.10;78.50;;;;;;5076187;28;20179;-74
2021/10/28 06:53:31;;;;;;;7.13;2.13;;;28.10;79.10;;;;;;5071337;28;20301;-76
2021/10/28 07:04:00;;;;;;;5.17;2.50;;;27.50;79.90;;;;;;5068811;28;20668;-74
2021/10/28 07:06:28;;;;;;;6.87;2.50;;;27.40;80.40;;;;;;5076183;28;20560;-74
2021/10/28 07:09:02;;;;;;;2.93;2.00;;;27.30;80.60;;;;;;5074826;28;20179;-74
2021/10/28 07:11:34;;;;;;;7.53;2.77;;;27.20;80.80;;;;;;5077691;28;20190;-73
2021/10/28 07:14:05;;;;;;;10.63;2.57;;;27.10;81.30;;;;;;5075435;28;20277;-73
2021/10/28 07:22:10;;;;;;;6.77;2.20;;;26.90;80.80;;;;;;5073298;28;20179;-75
2021/10/28 07:30:15;;;;;;;5.70;2.50;;;26.70;78.60;;;;;;5074521;28;20665;-74
2021/10/28 07:33:03;;;;;;;6.93;2.00;;;26.70;79.00;;;;;;5068444;28;20248;-73
2021/10/28 07:38:25;;;;;;;5.23;2.60;;;26.60;79.00;;;;;;5072240;28;20183;-73
2021/10/28 07:55:04;;;;;;;4.73;1.80;;;26.30;78.20;;;;;;5075011;28;20691;-73
2021/10/28 07:57:52;;;;;;;5.20;1.83;;;26.30;78.40;;;;;;5074326;28;20183;-74
2021/10/28 08:14:23;;;;;;;;;;;;;;;;;;;;;
2021/10/28 08:16:59;;;;;;;7.50;2.23;;;26.00;78.10;;;;;;5074467;28;20191;-76
2021/10/28 08:19:49;;;;;;;5.47;2.10;;;26.00;77.40;;;;;;5073585;28;20598;-75
2021/10/28 08:22:24;;;;;;;4.73;2.43;;;25.90;76.50;;;;;;5073590;28;20203;-73
2021/10/28 08:30:24;;;;;;;8.43;1.90;;;25.90;77.70;;;;;;5070618;28;20233;-76
2021/10/28 08:32:52;;;;;;;10.73;2.00;;;25.80;78.20;;;;;;5061581;28;20215;-74
2021/10/28 08:35:19;;;;;;;11.37;2.60;;;25.80;79.20;;;;;;5055862;28;20222;-75
2021/10/28 08:37:52;;;;;;;5.17;1.87;;;25.70;80.40;;;;;;5066173;28;20195;-74
2021/10/28 08:40:21;;;;;;;6.00;2.13;;;25.60;80.70;;;;;;5062904;28;20255;-73
2021/10/28 08:42:49;;;;;;;7.60;2.90;;;25.60;81.10;;;;;;5072047;28;20629;-73
2021/10/28 08:45:19;;;;;;;5.57;2.07;;;25.50;80.90;;;;;;5072836;28;20248;-73
2021/10/28 08:47:55;;;;;;;5.13;2.37;;;25.50;80.60;;;;;;5068750;28;20179;-73
2021/10/28 08:50:33;;;;;;;7.70;2.07;;;25.50;80.40;;;;;;5063774;28;20182;-73
2021/10/28 08:55:49;;;;;;;5.93;3.00;;;25.50;80.00;;;;;;5073124;28;20173;-75
2021/10/28 09:27:20;;;;;;;7.00;2.40;;;25.00;83.40;;;;;;5068282;28;20213;-73
2021/10/28 09:30:25;;;;;;;8.37;2.93;;;25.00;83.90;;;;;;5071586;28;20185;-73
2021/10/28 09:32:53;;;;;;;5.40;2.40;;;25.00;84.60;;;;;;5062444;28;20658;-73
2021/10/28 09:35:32;;;;;;;4.47;2.50;;;24.90;85.30;;;;;;5072461;28;20193;-72
2021/10/28 09:44:10;;;;;;;7.20;2.10;;;24.60;90.80;;;;;;5065583;28;20273;-77
2021/10/28 09:46:47;;;;;;;9.50;2.63;;;24.40;91.70;;;;;;5061126;28;20171;-75
2021/10/28 09:51:58;;;;;;;11.57;3.27;;;24.20;93.70;;;;;;5072172;28;20237;-73
2021/10/28 10:00:11;;;;;;;8.13;3.00;;;23.90;97.60;;;;;;5028149;28;20226;-72
2021/10/28 10:05:29;;;;;;;9.20;3.23;;;23.70;99.90;;;;;;5051176;28;20183;-74
2021/10/28 10:07:56;;;;;;;10.67;3.57;;;23.60;99.90;;;;;;5070889;28;20230;-73
2021/10/28 10:10:25;;;;;;;12.77;4.13;;;23.60;99.90;;;;;;5072489;28;20182;-74
2021/10/28 10:12:53;;;;;;;8.00;3.50;;;23.50;99.90;;;;;;5071952;28;20242;-74
2021/10/28 10:15:21;;;;;;;10.73;4.20;;;23.50;99.90;;;;;;5071773;28;20171;-72
2021/10/28 10:18:01;;;;;;;14.07;7.33;;;23.50;99.90;;;;;;5071999;28;20192;-72
2021/10/28 10:20:37;;;;;;;15.03;6.40;;;23.50;99.90;;;;;;5060883;28;20175;-72
2021/10/28 11:33:39;;;;;;;11.33;3.43;;;23.10;99.90;;;;;;5073653;28;20226;-73
2021/10/28 12:43:23;;;;;;;12.37;3.57;;;22.50;99.90;;;;;;5042318;28;20194;-75
2021/10/28 12:45:52;;;;;;;7.47;2.73;;;22.30;99.90;;;;;;5072429;28;20202;-75
2021/10/28 12:48:57;;;;;;;14.20;3.40;;;22.30;99.90;;;;;;5059481;28;20186;-75
2021/10/28 12:51:41;;;;;;;9.80;3.60;;;22.30;99.90;;;;;;5073817;28;20205;-75
2021/10/28 13:06:19;;;;;;;16.70;3.60;;;22.10;99.90;;;;;;5073080;28;20187;-73
2021/10/28 14:29:07;;;;;;;10.50;3.43;;;21.80;99.90;;;;;;5071731;28;20261;-74
2021/10/28 15:02:58;;;;;;;10.50;3.20;;;21.10;99.90;;;;;;5071847;28;20190;-74
2021/10/28 15:35:40;;;;;;;14.70;4.60;;;20.80;99.90;;;;;;5073768;28;20187;-74
2021/10/28 15:38:29;;;;;;;19.07;3.63;;;20.80;99.90;;;;;;5075175;28;20175;-75
2021/10/28 15:57:41;;;;;;;9.23;3.30;;;20.90;99.90;;;;;;5079991;28;20178;-75
2021/10/28 16:22:04;;;;;;;9.97;3.03;;;20.50;99.90;;;;;;5075459;28;20190;-75
2021/10/28 16:24:34;;;;;;;9.20;3.37;;;20.50;99.90;;;;;;5074626;28;20183;-74
2021/10/28 16:27:03;;;;;;;6.53;2.93;;;20.40;99.90;;;;;;5074441;28;20180;-74
2021/10/28 16:29:31;;;;;;;7.83;2.73;;;20.40;99.90;;;;;;5074508;28;20187;-75
2021/10/28 16:31:59;;;;;;;12.13;3.43;;;20.30;99.90;;;;;;5073457;28;20187;-74
2021/10/28 16:34:28;;;;;;;5.43;2.77;;;20.30;99.90;;;;;;5074085;28;20213;-74
2021/10/28 16:36:57;;;;;;;12.30;3.10;;;20.30;99.90;;;;;;5073974;28;20194;-74
2021/10/28 16:39:25;;;;;;;10.67;3.90;;;20.30;99.90;;;;;;5073174;28;20710;-74
2021/10/28 16:41:55;;;;;;;9.97;3.50;;;20.30;99.90;;;;;;5074064;28;20622;-74
2021/10/28 16:44:23;;;;;;;11.77;3.53;;;20.20;99.90;;;;;;5073268;28;20182;-74
2021/10/28 16:46:52;;;;;;;13.30;3.40;;;20.20;99.90;;;;;;5073282;28;20660;-75
2021/10/28 16:49:20;;;;;;;15.97;3.70;;;20.20;99.90;;;;;;5074151;28;20673;-74
2021/10/28 16:51:48;;;;;;;7.20;3.90;;;20.20;99.90;;;;;;5072995;28;20195;-73
2021/10/28 16:54:18;;;;;;;10.13;4.07;;;20.20;99.90;;;;;;5073690;28;20191;-74
2021/10/28 16:56:49;;;;;;;13.93;4.13;;;20.20;99.90;;;;;;5073774;28;20270;-74
2021/10/28 16:59:17;;;;;;;16.30;4.13;;;20.30;99.90;;;;;;5073575;28;20183;-74
2021/10/28 17:01:45;;;;;;;11.30;3.77;;;20.20;99.90;;;;;;5072116;28;20540;-74
2021/10/28 17:04:12;;;;;;;7.07;3.43;;;20.30;99.90;;;;;;5071067;28;20168;-74
2021/10/28 17:06:40;;;;;;;10.33;3.90;;;20.30;99.90;;;;;;5053842;28;20188;-74
2021/10/28 17:09:08;;;;;;;11.33;3.60;;;20.20;99.90;;;;;;5064545;28;20176;-74
2021/10/28 17:11:37;;;;;;;14.57;3.70;;;20.30;99.90;;;;;;5073361;28;20178;-74
2021/10/28 17:14:05;;;;;;;12.50;3.57;;;20.30;99.90;;;;;;5073332;28;20293;-74
2021/10/28 17:16:34;;;;;;;12.60;3.30;;;20.30;99.90;;;;;;5073300;28;20224;-73
2021/10/28 17:19:01;;;;;;;11.07;3.60;;;20.30;99.90;;;;;;5073156;28;20233;-73
2021/10/28 17:21:29;;;;;;;14.60;4.33;;;20.30;99.90;;;;;;5073353;28;20175;-73
2021/10/28 17:24:06;;;;;;;15.03;3.97;;;20.30;99.90;;;;;;5072845;28;20187;-73
2021/10/28 17:26:34;;;;;;;14.87;3.43;;;20.30;99.90;;;;;;5072069;28;20186;-73
2021/10/28 17:29:04;;;;;;;16.73;4.13;;;20.30;99.90;;;;;;5064819;28;20211;-73
2021/10/28 17:31:33;;;;;;;12.97;4.33;;;20.30;99.90;;;;;;5072793;28;20178;-72
2021/10/28 17:34:03;;;;;;;16.70;3.57;;;20.30;99.90;;;;;;5071375;28;20272;-73
2021/10/28 17:36:31;;;;;;;16.90;3.93;;;20.30;99.90;;;;;;5072543;28;20191;-73
2021/10/28 17:38:59;;;;;;;16.83;4.43;;;20.30;99.90;;;;;;5072857;28;20175;-74
2021/10/28 17:41:27;;;;;;;16.37;4.23;;;20.20;99.90;;;;;;5072830;28;20687;-74
2021/10/28 17:43:56;;;;;;;19.43;5.43;;;20.20;99.90;;;;;;5070520;28;20183;-73
2021/10/28 17:46:26;;;;;;;14.23;4.17;;;20.20;99.90;;;;;;5052737;28;20236;-73
2021/10/28 17:48:54;;;;;;;11.07;3.57;;;20.20;99.90;;;;;;5070104;28;20527;-73
2021/10/28 17:51:22;;;;;;;7.30;2.60;;;20.10;99.90;;;;;;5072872;28;20235;-72
2021/10/28 17:53:50;;;;;;;7.33;2.60;;;20.10;99.90;;;;;;5072444;28;20222;-74
2021/10/28 17:56:18;;;;;;;10.60;2.57;;;20.10;99.90;;;;;;5073079;28;20267;-72
2021/10/28 17:58:46;;;;;;;3.53;2.03;;;20.10;99.90;;;;;;5072785;28;20542;-72
2021/10/28 18:01:18;;;;;;;7.17;2.50;;;20.10;99.90;;;;;;5070599;28;20179;-72
2021/10/28 18:03:46;;;;;;;4.87;2.60;;;20.10;99.90;;;;;;5072700;28;20183;-73
2021/10/28 18:06:13;;;;;;;8.23;2.50;;;20.10;99.90;;;;;;5072357;28;20178;-73
2021/10/28 18:08:41;;;;;;;7.30;3.20;;;20.20;99.90;;;;;;5072197;28;20182;-73
2021/10/28 18:11:08;;;;;;;8.97;2.43;;;20.20;99.90;;;;;;5072580;28;20246;-73
2021/10/28 18:13:36;;;;;;;8.53;3.20;;;20.20;99.90;;;;;;5072499;28;20551;-73
2021/10/28 18:16:05;;;;;;;8.13;3.03;;;20.20;99.90;;;;;;5071933;28;20183;-72
2021/10/28 18:18:35;;;;;;;8.53;3.10;;;20.20;99.90;;;;;;5073121;28;20186;-72
2021/10/28 18:21:03;;;;;;;12.33;3.37;;;20.10;99.90;;;;;;5072254;28;20179;-73
2021/10/28 18:23:38;;;;;;;13.23;3.50;;;20.10;99.90;;;;;;5072473;28;20178;-74
2021/10/28 18:26:06;;;;;;;7.97;2.73;;;20.10;99.90;;;;;;5072576;28;20171;-74
2021/10/28 18:28:33;;;;;;;10.93;3.10;;;20.10;99.90;;;;;;5072697;28;20253;-73
2021/10/28 18:31:01;;;;;;;9.87;3.37;;;20.10;99.90;;;;;;5072136;28;20187;-73
2021/10/28 18:33:28;;;;;;;13.60;3.40;;;20.10;99.90;;;;;;5072469;28;20568;-73
2021/10/28 18:35:57;;;;;;;8.50;3.33;;;20.10;99.90;;;;;;5072239;28;20180;-73
2021/10/28 18:38:26;;;;;;;8.40;3.00;;;20.00;99.90;;;;;;5072087;28;20549;-74
2021/10/28 18:40:54;;;;;;;7.93;2.80;;;20.00;99.90;;;;;;5072532;28;20179;-74
2021/10/28 18:43:22;;;;;;;5.57;3.10;;;20.00;99.90;;;;;;5059580;28;20191;-74
2021/10/28 18:45:50;;;;;;;7.37;2.90;;;20.00;99.90;;;;;;5072160;28;20213;-74
2021/10/28 18:48:17;;;;;;;8.87;2.90;;;20.00;99.90;;;;;;5071899;28;20206;-74
2021/10/28 18:50:45;;;;;;;4.87;2.80;;;19.90;99.90;;;;;;5072017;28;20687;-74
2021/10/28 18:53:12;;;;;;;8.53;2.87;;;20.00;99.90;;;;;;5071906;28;20259;-74
2021/10/28 18:55:40;;;;;;;9.30;3.10;;;19.90;99.90;;;;;;5074514;28;20171;-75
2021/10/28 18:58:08;;;;;;;9.33;2.83;;;20.00;99.90;;;;;;5075904;28;20179;-74
2021/10/28 19:00:36;;;;;;;6.03;2.50;;;19.90;99.90;;;;;;5075768;28;20175;-74
2021/10/28 19:03:03;;;;;;;7.00;2.90;;;19.90;99.90;;;;;;5075439;28;20180;-73
2021/10/28 19:05:31;;;;;;;6.77;2.97;;;19.90;99.90;;;;;;5075347;28;20190;-72
2021/10/28 19:07:59;;;;;;;11.23;3.77;;;19.90;99.90;;;;;;5075571;28;20198;-72
2021/10/28 19:10:28;;;;;;;6.53;3.60;;;20.00;99.90;;;;;;5075030;28;20186;-74
2021/10/28 19:12:56;;;;;;;7.00;3.23;;;20.00;99.90;;;;;;5074474;28;20280;-73
2021/10/28 19:15:23;;;;;;;9.77;3.50;;;20.00;99.90;;;;;;5075234;28;20183;-72
2021/10/28 19:17:52;;;;;;;10.93;3.60;;;20.10;99.90;;;;;;5073672;28;20214;-72
2021/10/28 19:20:19;;;;;;;6.50;3.00;;;20.20;99.90;;;;;;5074836;28;20173;-72
2021/10/28 19:22:47;;;;;;;9.93;3.47;;;20.30;99.90;;;;;;5074533;28;20272;-72
2021/10/28 19:25:14;;;;;;;13.90;3.83;;;20.30;99.90;;;;;;5074442;28;20168;-72
2021/10/28 19:27:42;;;;;;;18.80;4.53;;;20.40;99.90;;;;;;5071752;28;21457;-73
2021/10/28 19:32:51;;;;;;;17.27;3.30;;;20.20;99.90;;;;;;5074736;28;20619;-72
2021/10/28 19:35:22;;;;;;;13.47;3.80;;;20.20;99.90;;;;;;5073790;28;20194;-72
2021/10/28 19:37:57;;;;;;;10.77;3.10;;;20.30;99.90;;;;;;5054703;28;20646;-71
2021/10/28 19:41:33;;;;;;;12.30;2.83;;;20.40;99.90;;;;;;5072471;28;20641;-72
2021/10/28 19:46:11;;;;;;;8.03;2.60;;;20.70;99.90;;;;;;5066311;28;20268;-72
2021/10/28 19:48:40;;;;;;;8.33;2.40;;;20.80;99.90;;;;;;5068579;28;20195;-73
2021/10/28 19:51:10;;;;;;;5.83;2.20;;;21.00;99.90;;;;;;5074510;28;20775;-72
2021/10/28 19:53:39;;;;;;;10.20;2.00;;;21.10;99.90;;;;;;5074243;28;20661;-72
2021/10/28 19:56:15;;;;;;;3.77;1.83;;;21.20;99.90;;;;;;5064737;28;20555;-72
2021/10/28 19:58:51;;;;;;;9.77;1.50;;;21.30;99.30;;;;;;5074478;28;20186;-73
2021/10/28 20:20:19;;;;;;;10.30;1.57;;;22.10;94.20;;;;;;5074746;28;20301;-72
2021/10/28 20:22:49;;;;;;;2.37;1.20;;;22.20;93.90;;;;;;5074489;28;20167;-72
2021/10/28 20:25:24;;;;;;;11.83;1.57;;;22.30;93.20;;;;;;5074325;28;20179;-76
2021/10/28 20:27:52;;;;;;;4.97;1.27;;;22.40;92.90;;;;;;5078047;28;20175;-72
2021/10/28 20:30:37;;;;;;;9.67;1.47;;;22.50;92.60;;;;;;5076520;28;20167;-74
2021/10/28 20:33:04;;;;;;;5.10;1.43;;;22.60;92.30;;;;;;5072929;28;20555;-76
2021/10/28 20:35:54;;;;;;;7.10;1.60;;;22.70;92.20;;;;;;5073917;28;20213;-75
2021/10/28 20:38:22;;;;;;;6.20;2.10;;;22.80;91.70;;;;;;5073675;28;20175;-80
2021/10/28 20:40:49;;;;;;;8.97;2.00;;;22.90;91.30;;;;;;5072646;28;20194;-76
2021/10/28 20:43:16;;;;;;;6.93;1.60;;;23.00;91.40;;;;;;5072539;28;20183;-76
2021/10/28 20:45:44;;;;;;;7.10;2.00;;;23.10;90.90;;;;;;5072982;28;20190;-78
2021/10/28 20:48:11;;;;;;;10.30;2.43;;;23.10;90.70;;;;;;5073120;28;20179;-76
2021/10/28 20:50:38;;;;;;;6.37;2.37;;;23.20;91.10;;;;;;5072919;28;20203;-72
2021/10/28 20:53:06;;;;;;;6.80;1.57;;;23.20;91.00;;;;;;5060312;28;20218;-75
2021/10/28 20:55:34;;;;;;;9.13;1.87;;;23.20;91.10;;;;;;5061856;28;20182;-73
2021/10/28 20:58:02;;;;;;;10.83;2.93;;;23.20;91.20;;;;;;5069179;28;20193;-81
2021/10/28 21:00:30;;;;;;;6.20;2.20;;;23.20;91.10;;;;;;5073157;28;20187;-76
2021/10/28 21:02:59;;;;;;;12.53;2.80;;;23.20;90.80;;;;;;5072811;28;20194;-75
2021/10/28 21:05:28;;;;;;;7.23;2.00;;;23.30;91.20;;;;;;5073262;28;20187;-74
2021/10/28 21:07:55;;;;;;;10.43;1.67;;;23.30;90.70;;;;;;5072934;28;20705;-75
2021/10/28 21:10:26;;;;;;;8.47;1.47;;;23.30;90.60;;;;;;5070582;28;20547;-75
2021/10/28 21:12:55;;;;;;;7.43;1.77;;;23.30;90.60;;;;;;5073050;28;20238;-77
2021/10/28 21:15:24;;;;;;;6.13;1.80;;;23.40;90.60;;;;;;5072881;28;20214;-76
2021/10/28 21:17:52;;;;;;;17.47;3.43;;;23.40;90.70;;;;;;5065861;28;20199;-75
2021/10/28 21:20:20;;;;;;;14.37;2.87;;;23.50;90.80;;;;;;5064919;28;20625;-75
2021/10/28 21:22:48;;;;;;;13.60;1.70;;;23.50;90.70;;;;;;5083852;28;20261;-75
2021/10/28 21:25:15;;;;;;;10.03;2.43;;;23.50;90.30;;;;;;5076278;28;20180;-74
2021/10/28 21:27:43;;;;;;;16.13;2.83;;;23.50;90.60;;;;;;5072200;28;20183;-75
2021/10/28 21:30:12;;;;;;;11.57;1.90;;;23.60;90.30;;;;;;5056252;28;20712;-75
2021/10/28 21:32:41;;;;;;;6.37;1.77;;;23.70;90.20;;;;;;5058231;28;20238;-77
2021/10/28 21:35:12;;;;;;;10.00;1.97;;;23.80;89.90;;;;;;5072234;28;20179;-77
2021/10/28 21:37:42;;;;;;;10.97;1.70;;;23.90;89.30;;;;;;5058393;28;20180;-77
2021/10/28 21:40:11;;;;;;;10.17;2.60;;;24.00;89.10;;;;;;5064872;28;20248;-79